Chatham, New Jersey
Current Conditions -  °F | °C
As of 4:45 PM on Friday 31 Oct 2014 (Local Time) from KMMU Reporting Station
Overcast Overcast  
Wind Chill: 52°   Ceiling: 4500
Heat Index: 52°   Visibility: 10mi
Dew Point: 37°   Wind: 0mph
Humidity: 58%   Direction: NA
Pressure: 29.91"   Gusts: NA
Location:  40.74°N, 74.38°W
Report Text: KMMU 312045Z 00000KT 10SM OVC045 11/03 A2991
Loading
Personal Weather Stations






























Interactive Weather Map
Tropical Storm Tracking
New forecast layout! Learn more

10-Day Weather Forecast

Advertisements
Track Severe Weather on mobile